Time;durP1;ratioP1;P1;durP2;ratioP2;P2;SDS_P1;SDS_P2;PMS_P1;PMS_P2;Temp;Humidity;BMP_temperature;BMP_pressure;BME280_temperature;BME280_humidity;BME280_pressure;Samples;Min_cycle;Max_cycle;Signal;HPM_P1;HPM_P2
2023/11/03 00:00:00;;;;;;;1.27;0.07;;;8.80;99.90;;;;;;4102062;29;20266;-89
2023/11/03 00:02:03;;;;;;;0.65;0.25;;;8.70;99.90;;;;;;4102146;29;20183;-88
2023/11/03 00:04:08;;;;;;;3.10;0.75;;;8.70;99.90;;;;;;4102173;29;20178;-89
2023/11/03 00:06:09;;;;;;;0.20;0.00;;;8.70;99.90;;;;;;4101876;29;20520;-90
2023/11/03 00:08:10;;;;;;;1.92;0.35;;;8.70;99.90;;;;;;4117865;28;20193;-89
2023/11/03 00:10:11;;;;;;;0.50;0.30;;;8.70;99.90;;;;;;4101777;29;20207;-89
2023/11/03 00:12:13;;;;;;;0.00;0.00;;;8.60;99.90;;;;;;4101890;29;20603;-89
2023/11/03 00:14:14;;;;;;;3.40;0.60;;;8.60;99.90;;;;;;4102087;29;20182;-89
2023/11/03 00:16:14;;;;;;;1.00;0.10;;;8.60;99.90;;;;;;4102145;29;20207;-92
2023/11/03 00:18:15;;;;;;;0.00;0.00;;;8.60;99.90;;;;;;4102005;29;20242;-89
2023/11/03 00:20:16;;;;;;;1.55;0.30;;;8.60;99.90;;;;;;4101912;29;20698;-89
2023/11/03 00:22:18;;;;;;;0.10;0.00;;;8.50;99.90;;;;;;4102102;29;20183;-89
2023/11/03 00:24:19;;;;;;;0.23;0.10;;;8.50;99.90;;;;;;4101846;29;20191;-89
2023/11/03 00:26:19;;;;;;;0.63;0.20;;;8.50;99.90;;;;;;4102121;28;20187;-89
2023/11/03 00:28:23;;;;;;;5.53;0.93;;;8.50;99.90;;;;;;4100977;28;20218;-90
2023/11/03 00:30:23;;;;;;;0.43;0.10;;;8.50;99.90;;;;;;4101729;28;20306;-89
2023/11/03 00:32:24;;;;;;;3.70;0.43;;;8.50;99.90;;;;;;4101368;29;20187;-90
2023/11/03 00:34:25;;;;;;;3.80;0.00;;;8.50;99.90;;;;;;4117352;28;20230;-88
2023/11/03 00:36:26;;;;;;;3.73;0.10;;;8.50;99.90;;;;;;4117492;28;20200;-89
2023/11/03 00:38:26;;;;;;;0.00;0.00;;;8.50;99.90;;;;;;4101668;29;20246;-91
2023/11/03 00:40:28;;;;;;;0.00;0.00;;;8.50;99.90;;;;;;4101543;29;20218;-90
2023/11/03 00:42:29;;;;;;;0.37;0.00;;;8.50;99.90;;;;;;4117436;28;20237;-89
2023/11/03 00:44:30;;;;;;;0.03;0.03;;;8.60;99.90;;;;;;4101605;29;20187;-89
2023/11/03 00:46:31;;;;;;;1.93;0.10;;;8.60;99.90;;;;;;4101327;29;20206;-90
2023/11/03 00:48:31;;;;;;;0.00;0.00;;;8.70;99.90;;;;;;4101433;28;20191;-89
2023/11/03 00:50:32;;;;;;;0.20;0.10;;;8.80;99.90;;;;;;4101804;29;20660;-89
2023/11/03 00:52:33;;;;;;;0.10;0.10;;;8.80;99.90;;;;;;4101341;29;20183;-88
2023/11/03 00:54:34;;;;;;;0.00;0.00;;;8.80;99.90;;;;;;4101368;29;20186;-90
2023/11/03 00:56:35;;;;;;;0.13;0.13;;;8.80;99.90;;;;;;4101488;29;20186;-89
2023/11/03 00:58:36;;;;;;;0.00;0.00;;;8.80;99.90;;;;;;4101191;29;20230;-89
2023/11/03 01:00:41;;;;;;;2.55;0.10;;;8.80;99.90;;;;;;4101261;29;20189;-90
2023/11/03 01:02:41;;;;;;;0.30;0.10;;;8.70;99.90;;;;;;4101107;29;20194;-89
2023/11/03 01:04:42;;;;;;;3.05;0.22;;;8.70;99.90;;;;;;4101106;29;20179;-90
2023/11/03 01:06:43;;;;;;;1.80;0.20;;;8.70;99.90;;;;;;4101179;28;20193;-89
2023/11/03 01:08:43;;;;;;;2.88;0.20;;;8.60;99.90;;;;;;4101061;29;20617;-89
2023/11/03 01:10:44;;;;;;;0.00;0.00;;;8.60;99.90;;;;;;4101234;28;20655;-90
2023/11/03 01:12:45;;;;;;;0.40;0.30;;;8.60;99.90;;;;;;4101054;29;20182;-89
2023/11/03 01:14:46;;;;;;;0.90;0.52;;;8.60;99.90;;;;;;4116856;28;20186;-88
2023/11/03 01:16:46;;;;;;;5.47;0.43;;;8.60;99.90;;;;;;4101047;29;20230;-89
2023/11/03 01:18:47;;;;;;;0.20;0.20;;;8.60;99.90;;;;;;4100896;29;20230;-90
2023/11/03 01:20:48;;;;;;;0.85;0.10;;;8.70;99.90;;;;;;4100853;29;20179;-90
2023/11/03 01:22:49;;;;;;;0.13;0.00;;;8.80;99.90;;;;;;4116918;28;20190;-89
2023/11/03 01:24:52;;;;;;;0.87;0.30;;;8.80;99.90;;;;;;4116944;28;20178;-90
2023/11/03 01:26:53;;;;;;;0.38;0.20;;;8.80;99.90;;;;;;4100775;29;20191;-89
2023/11/03 01:28:54;;;;;;;0.05;0.03;;;8.70;99.90;;;;;;4116646;28;20658;-91
2023/11/03 01:30:54;;;;;;;3.35;0.30;;;8.70;99.90;;;;;;4100834;29;20187;-90
2023/11/03 01:32:56;;;;;;;1.40;0.40;;;8.80;99.90;;;;;;4100913;28;20186;-89
2023/11/03 01:34:57;;;;;;;5.47;0.40;;;8.90;99.90;;;;;;4100675;29;20182;-90
2023/11/03 01:36:57;;;;;;;0.80;0.63;;;8.80;99.90;;;;;;4100655;29;20183;-90
2023/11/03 01:38:58;;;;;;;3.92;0.10;;;8.90;99.90;;;;;;4116061;28;20218;-90
2023/11/03 01:41:00;;;;;;;1.55;0.20;;;8.90;99.90;;;;;;4116691;28;20186;-90
2023/11/03 01:43:01;;;;;;;2.40;0.73;;;8.90;99.90;;;;;;4100427;29;20183;-90
2023/11/03 01:45:02;;;;;;;0.10;0.00;;;8.90;99.90;;;;;;4100530;28;20242;-89
2023/11/03 01:47:03;;;;;;;1.20;0.10;;;8.80;99.90;;;;;;4116528;28;20273;-90
2023/11/03 01:49:05;;;;;;;0.40;0.25;;;8.80;99.90;;;;;;4116393;28;20213;-90
2023/11/03 01:51:06;;;;;;;5.18;0.20;;;8.80;99.90;;;;;;4100860;29;20214;-90
2023/11/03 01:53:07;;;;;;;0.00;0.00;;;8.60;99.90;;;;;;4116547;28;20178;-89
2023/11/03 01:55:08;;;;;;;0.00;0.00;;;8.70;99.90;;;;;;4100379;29;20221;-90
2023/11/03 01:57:09;;;;;;;3.33;0.30;;;8.70;99.90;;;;;;4116366;28;20190;-89
2023/11/03 01:59:11;;;;;;;0.75;0.43;;;8.60;99.90;;;;;;4100383;29;20285;-90
2023/11/03 02:01:12;;;;;;;0.73;0.30;;;8.60;99.90;;;;;;4100723;29;20210;-90
2023/11/03 02:03:13;;;;;;;5.65;0.43;;;8.70;99.90;;;;;;4100497;28;20230;-90
2023/11/03 02:05:14;;;;;;;0.93;0.47;;;8.70;99.90;;;;;;4100574;29;20683;-92
2023/11/03 02:07:15;;;;;;;0.10;0.03;;;8.80;99.90;;;;;;4116491;28;20194;-90
2023/11/03 02:09:16;;;;;;;0.70;0.13;;;8.90;99.90;;;;;;4100411;29;20238;-90
2023/11/03 02:11:28;;;;;;;3.03;0.63;;;8.90;99.90;;;;;;4100264;29;20193;-91
2023/11/03 02:13:30;;;;;;;1.90;0.60;;;8.90;99.90;;;;;;4100194;29;20293;-89
2023/11/03 02:15:31;;;;;;;8.57;1.92;;;8.90;99.90;;;;;;4100010;29;20222;-90
2023/11/03 02:17:33;;;;;;;5.47;0.22;;;8.90;99.90;;;;;;4099924;29;20666;-91
2023/11/03 02:19:35;;;;;;;3.33;0.60;;;8.90;99.90;;;;;;4099671;29;20320;-90
2023/11/03 02:21:37;;;;;;;1.83;0.47;;;8.90;99.90;;;;;;4099985;29;20190;-90
2023/11/03 02:23:38;;;;;;;4.68;0.30;;;8.90;99.90;;;;;;4099923;29;20230;-90
2023/11/03 02:25:38;;;;;;;2.50;0.10;;;9.00;99.90;;;;;;4100020;29;20302;-90
2023/11/03 02:27:39;;;;;;;2.53;0.22;;;9.00;99.90;;;;;;4100014;29;20547;-89
2023/11/03 02:29:40;;;;;;;3.53;0.45;;;9.10;99.90;;;;;;4099717;29;20203;-90
2023/11/03 02:31:43;;;;;;;1.30;0.13;;;9.10;99.90;;;;;;4099957;29;20241;-91
2023/11/03 02:33:44;;;;;;;0.52;0.13;;;9.10;99.90;;;;;;4100090;29;20728;-91
2023/11/03 02:35:46;;;;;;;1.35;0.10;;;9.20;99.90;;;;;;4099944;29;20197;-91
2023/11/03 02:37:47;;;;;;;1.27;0.22;;;9.20;99.90;;;;;;4116024;28;20228;-91
2023/11/03 02:39:48;;;;;;;0.85;0.20;;;9.10;99.90;;;;;;4099573;29;20273;-91
2023/11/03 02:41:50;;;;;;;0.30;0.15;;;9.00;99.90;;;;;;4099696;29;20210;-90
2023/11/03 02:43:50;;;;;;;8.05;0.60;;;9.00;99.90;;;;;;4099816;29;20571;-91
2023/11/03 02:45:51;;;;;;;3.42;0.55;;;9.10;99.90;;;;;;4099873;29;20178;-92
2023/11/03 02:47:52;;;;;;;0.25;0.08;;;9.20;99.90;;;;;;4100017;29;20257;-92
2023/11/03 02:49:53;;;;;;;1.33;0.20;;;9.10;99.90;;;;;;4099782;28;20225;-90
2023/11/03 02:51:54;;;;;;;2.50;0.70;;;9.10;99.90;;;;;;4102800;29;20178;-92
2023/11/03 02:53:55;;;;;;;7.13;0.40;;;9.20;99.90;;;;;;4103164;29;20599;-89
2023/11/03 02:55:56;;;;;;;4.00;0.32;;;9.20;99.90;;;;;;4103032;29;20186;-91
2023/11/03 02:57:56;;;;;;;1.02;0.28;;;9.10;99.90;;;;;;4102877;29;20182;-91
2023/11/03 02:59:57;;;;;;;0.10;0.10;;;8.90;99.90;;;;;;4102755;29;20203;-91
2023/11/03 03:01:58;;;;;;;0.32;0.13;;;9.00;99.90;;;;;;4102827;29;20183;-92
2023/11/03 03:03:59;;;;;;;0.30;0.08;;;9.00;99.90;;;;;;4102988;29;20277;-92
2023/11/03 03:06:00;;;;;;;0.55;0.50;;;9.00;99.90;;;;;;4119051;28;20563;-91
2023/11/03 03:08:01;;;;;;;1.30;0.38;;;9.10;99.90;;;;;;4103154;29;20183;-91
2023/11/03 03:10:01;;;;;;;0.88;0.17;;;9.00;99.90;;;;;;4118738;28;20198;-91
2023/11/03 03:12:02;;;;;;;5.45;0.77;;;9.10;99.90;;;;;;4102689;29;20183;-91
2023/11/03 03:14:03;;;;;;;1.13;0.55;;;9.00;99.90;;;;;;4118766;28;20598;-93
2023/11/03 03:16:04;;;;;;;2.13;0.30;;;9.10;99.90;;;;;;4102833;29;20198;-92
2023/11/03 03:18:05;;;;;;;9.20;1.27;;;9.20;99.90;;;;;;4102869;29;20552;-91
2023/11/03 03:20:06;;;;;;;1.55;0.30;;;9.10;99.90;;;;;;4102964;28;20668;-91
2023/11/03 03:22:07;;;;;;;5.93;0.80;;;9.20;99.90;;;;;;4102932;29;20183;-90
2023/11/03 03:24:08;;;;;;;0.43;0.32;;;9.10;99.90;;;;;;4102735;29;20229;-91
2023/11/03 03:26:09;;;;;;;3.90;0.40;;;9.10;99.90;;;;;;4102869;29;20207;-91
2023/11/03 03:28:10;;;;;;;0.35;0.20;;;9.20;99.90;;;;;;4102969;29;20233;-90
2023/11/03 03:30:11;;;;;;;1.83;0.50;;;9.30;99.90;;;;;;4102740;29;20202;-90
2023/11/03 03:32:12;;;;;;;2.10;0.65;;;9.10;99.90;;;;;;4102733;29;20190;-93
2023/11/03 03:34:13;;;;;;;3.97;0.85;;;9.20;99.90;;;;;;4102766;28;20596;-91
2023/11/03 03:36:14;;;;;;;3.85;0.45;;;9.20;99.90;;;;;;4102757;29;20231;-91
2023/11/03 03:38:15;;;;;;;2.75;0.45;;;9.30;99.90;;;;;;4102976;29;20179;-91
2023/11/03 03:40:16;;;;;;;6.50;0.60;;;9.40;99.90;;;;;;4102484;28;20242;-90
2023/11/03 03:42:19;;;;;;;2.10;0.30;;;9.40;99.90;;;;;;4102367;29;20186;-91
2023/11/03 03:44:20;;;;;;;1.55;0.80;;;9.40;99.90;;;;;;4102032;28;20250;-92
2023/11/03 03:46:21;;;;;;;2.50;0.30;;;9.40;99.90;;;;;;4118055;28;20265;-91
2023/11/03 03:48:22;;;;;;;2.47;0.43;;;9.30;99.90;;;;;;4102193;29;20555;-91
2023/11/03 03:50:23;;;;;;;1.90;0.47;;;9.30;99.90;;;;;;4102290;29;20206;-92
2023/11/03 03:52:24;;;;;;;0.77;0.43;;;9.30;99.90;;;;;;4102299;29;20190;-91
2023/11/03 03:54:25;;;;;;;1.65;0.40;;;9.20;99.90;;;;;;4102524;29;20179;-91
2023/11/03 03:56:26;;;;;;;0.10;0.05;;;9.20;99.90;;;;;;4118168;28;20221;-91
2023/11/03 03:58:27;;;;;;;8.35;0.40;;;9.20;99.90;;;;;;4102180;29;20310;-91
2023/11/03 04:00:28;;;;;;;1.35;0.43;;;9.20;99.90;;;;;;4102123;29;20187;-91
2023/11/03 04:02:28;;;;;;;1.15;0.47;;;9.30;99.90;;;;;;4102140;28;20178;-91
2023/11/03 04:04:29;;;;;;;0.75;0.10;;;9.20;99.90;;;;;;4102208;29;20183;-91
2023/11/03 04:06:30;;;;;;;4.60;0.60;;;9.30;99.90;;;;;;4102194;29;20234;-91
2023/11/03 04:08:31;;;;;;;1.08;0.35;;;9.40;99.90;;;;;;4101921;29;20187;-91
2023/11/03 04:10:31;;;;;;;3.78;0.30;;;9.30;99.90;;;;;;4102196;29;20233;-90
2023/11/03 04:12:32;;;;;;;6.03;0.75;;;9.30;99.90;;;;;;4101967;29;20187;-91
2023/11/03 04:14:33;;;;;;;1.00;0.20;;;9.30;99.90;;;;;;4101939;28;20187;-91
2023/11/03 04:16:37;;;;;;;2.40;0.65;;;9.30;99.90;;;;;;4101813;29;20179;-91
2023/11/03 04:18:39;;;;;;;0.45;0.00;;;9.30;99.90;;;;;;4101822;29;20211;-91
2023/11/03 04:20:40;;;;;;;3.13;0.20;;;9.30;99.90;;;;;;4101933;29;20237;-89
2023/11/03 04:22:41;;;;;;;6.07;0.40;;;9.40;99.90;;;;;;4101888;29;20538;-91
2023/11/03 04:24:42;;;;;;;1.23;0.17;;;9.30;99.90;;;;;;4101837;29;20191;-90
2023/11/03 04:26:43;;;;;;;0.10;0.10;;;9.30;99.90;;;;;;4101861;28;20175;-91
2023/11/03 04:28:44;;;;;;;1.08;0.40;;;9.20;99.90;;;;;;4101640;28;20202;-90
2023/11/03 04:30:45;;;;;;;0.45;0.10;;;9.20;99.90;;;;;;4101668;29;20186;-90
2023/11/03 04:32:47;;;;;;;2.58;0.20;;;9.20;99.90;;;;;;4101701;29;20334;-90
2023/11/03 04:34:48;;;;;;;0.20;0.10;;;9.30;99.90;;;;;;4102039;29;20183;-90
2023/11/03 04:36:50;;;;;;;0.52;0.52;;;9.20;99.90;;;;;;4101973;28;20194;-91
2023/11/03 04:38:51;;;;;;;0.82;0.38;;;9.10;99.90;;;;;;4101578;28;20313;-90
2023/11/03 04:40:51;;;;;;;1.45;0.00;;;9.10;99.90;;;;;;4101701;29;20674;-90
2023/11/03 04:42:52;;;;;;;7.53;0.35;;;9.10;99.90;;;;;;4101682;29;20179;-91
2023/11/03 04:44:53;;;;;;;1.38;0.30;;;9.10;99.90;;;;;;4101417;29;20199;-92
2023/11/03 04:46:54;;;;;;;0.30;0.20;;;9.10;99.90;;;;;;4117429;28;20192;-91
2023/11/03 04:48:54;;;;;;;0.00;0.00;;;9.10;99.90;;;;;;4117508;28;20256;-91
2023/11/03 04:50:55;;;;;;;3.05;0.30;;;9.10;99.90;;;;;;4101676;29;20187;-91
2023/11/03 04:52:56;;;;;;;4.47;0.85;;;9.20;99.90;;;;;;4101381;29;20216;-91
2023/11/03 04:54:58;;;;;;;2.97;0.47;;;9.10;99.90;;;;;;4101161;29;20187;-91
2023/11/03 04:56:59;;;;;;;1.10;0.43;;;9.10;99.90;;;;;;4101243;29;20723;-92
2023/11/03 04:59:00;;;;;;;4.40;0.10;;;9.10;99.90;;;;;;4116785;28;20218;-90
2023/11/03 05:01:01;;;;;;;3.40;0.80;;;9.10;99.90;;;;;;4101387;29;20552;-91
2023/11/03 05:03:02;;;;;;;0.52;0.10;;;9.00;99.90;;;;;;4101279;29;20206;-91
2023/11/03 05:05:06;;;;;;;0.00;0.00;;;9.10;99.90;;;;;;4117117;28;20681;-91
2023/11/03 05:07:07;;;;;;;1.08;0.55;;;9.10;99.90;;;;;;4101194;29;20266;-91
2023/11/03 05:09:09;;;;;;;0.52;0.10;;;9.00;99.90;;;;;;4101222;29;20757;-93
2023/11/03 05:11:10;;;;;;;0.47;0.10;;;9.00;99.90;;;;;;4101309;29;20190;-91
2023/11/03 05:13:10;;;;;;;2.33;0.47;;;9.10;99.90;;;;;;4100627;28;20183;-91
2023/11/03 05:15:11;;;;;;;3.40;0.20;;;9.10;99.90;;;;;;4100988;29;20187;-91
2023/11/03 05:17:12;;;;;;;2.95;0.50;;;9.10;99.90;;;;;;4100922;29;20186;-92
2023/11/03 05:19:13;;;;;;;5.63;0.75;;;9.00;99.90;;;;;;4100901;29;20234;-90
2023/11/03 05:21:14;;;;;;;1.75;0.60;;;9.00;99.90;;;;;;4101126;28;20179;-91
2023/11/03 05:23:15;;;;;;;0.43;0.20;;;9.10;99.90;;;;;;4101170;29;20214;-92
2023/11/03 05:25:16;;;;;;;0.70;0.30;;;9.10;99.90;;;;;;4116820;28;20631;-91
2023/11/03 05:27:16;;;;;;;0.10;0.10;;;9.20;99.90;;;;;;4101034;29;20183;-92
2023/11/03 05:29:22;;;;;;;3.03;0.30;;;9.10;99.90;;;;;;4100843;28;20203;-91
2023/11/03 05:31:23;;;;;;;1.35;0.57;;;9.10;99.90;;;;;;4100889;28;20187;-90
2023/11/03 05:33:23;;;;;;;0.65;0.20;;;9.00;99.90;;;;;;4100654;28;20219;-91
2023/11/03 05:35:24;;;;;;;0.30;0.30;;;8.90;99.90;;;;;;4100576;29;20280;-91
2023/11/03 05:37:25;;;;;;;2.15;0.28;;;8.90;99.90;;;;;;4100686;29;20190;-89
2023/11/03 05:39:27;;;;;;;3.70;0.40;;;8.90;99.90;;;;;;4100522;29;20232;-92
2023/11/03 05:41:28;;;;;;;0.28;0.20;;;9.00;99.90;;;;;;4100963;29;20187;-91
2023/11/03 05:43:30;;;;;;;5.22;0.77;;;9.00;99.90;;;;;;4116669;28;20255;-91
2023/11/03 05:45:31;;;;;;;2.88;0.20;;;8.90;99.90;;;;;;4116476;28;20186;-90
2023/11/03 05:47:32;;;;;;;1.55;0.30;;;8.90;99.90;;;;;;4100561;29;20246;-91
2023/11/03 05:49:33;;;;;;;1.48;0.70;;;8.90;99.90;;;;;;4116802;28;20209;-91
2023/11/03 05:51:34;;;;;;;0.10;0.10;;;8.90;99.90;;;;;;4100455;29;20214;-90
2023/11/03 05:53:36;;;;;;;1.90;0.45;;;8.80;99.90;;;;;;4100448;29;20621;-91
2023/11/03 05:55:37;;;;;;;5.25;0.65;;;8.90;99.90;;;;;;4100589;29;20186;-90
2023/11/03 05:57:38;;;;;;;2.85;0.85;;;8.80;99.90;;;;;;4100716;29;20278;-91
2023/11/03 05:59:38;;;;;;;1.75;0.22;;;8.80;99.90;;;;;;4100283;29;20226;-89
2023/11/03 06:01:39;;;;;;;0.60;0.20;;;8.70;99.90;;;;;;4100296;29;20226;-90
2023/11/03 06:03:40;;;;;;;1.80;0.88;;;8.70;99.90;;;;;;4100468;29;20214;-91
2023/11/03 06:05:41;;;;;;;3.47;1.33;;;8.60;99.90;;;;;;4100707;29;20194;-90
2023/11/03 06:07:41;;;;;;;1.05;0.30;;;8.60;99.90;;;;;;4100444;29;20194;-91
2023/11/03 06:09:42;;;;;;;8.30;0.30;;;8.60;99.90;;;;;;4100582;29;20210;-93
2023/11/03 06:11:43;;;;;;;1.17;0.52;;;8.60;99.90;;;;;;4100493;29;20706;-92
2023/11/03 06:13:44;;;;;;;3.17;0.10;;;8.60;99.90;;;;;;4116198;28;20178;-91
2023/11/03 06:15:45;;;;;;;2.28;0.73;;;8.60;99.90;;;;;;4100557;28;20179;-90
2023/11/03 06:17:46;;;;;;;1.10;0.30;;;8.60;99.90;;;;;;4100440;28;20198;-90
2023/11/03 06:19:47;;;;;;;1.80;0.20;;;8.50;99.90;;;;;;4115845;28;20268;-90
2023/11/03 06:21:47;;;;;;;1.38;0.30;;;8.50;99.90;;;;;;4100225;29;20230;-92
2023/11/03 06:23:48;;;;;;;8.47;0.77;;;8.50;99.90;;;;;;4115894;28;20267;-91
2023/11/03 06:25:49;;;;;;;0.10;0.10;;;8.50;99.90;;;;;;4099035;28;20218;-91
2023/11/03 06:27:50;;;;;;;6.13;0.57;;;8.50;99.90;;;;;;4115899;28;20582;-89
2023/11/03 06:29:51;;;;;;;0.98;0.22;;;8.50;99.90;;;;;;4099979;29;20749;-91
2023/11/03 06:31:51;;;;;;;0.43;0.20;;;8.40;99.90;;;;;;4100110;29;20183;-92
2023/11/03 06:33:52;;;;;;;6.23;0.50;;;8.40;99.90;;;;;;4099934;29;20183;-92
2023/11/03 06:35:53;;;;;;;1.40;0.10;;;8.30;99.90;;;;;;4115721;28;20202;-91
2023/11/03 06:37:54;;;;;;;3.80;0.50;;;8.40;99.90;;;;;;4099942;29;20186;-93
2023/11/03 06:39:55;;;;;;;5.30;0.63;;;8.30;99.90;;;;;;4099909;29;20346;-91
2023/11/03 06:41:56;;;;;;;1.93;0.30;;;8.20;99.90;;;;;;4099977;29;20186;-92
2023/11/03 06:43:56;;;;;;;3.72;0.28;;;8.20;99.90;;;;;;4100029;29;20191;-91
2023/11/03 06:45:57;;;;;;;0.40;0.30;;;8.20;99.90;;;;;;4099923;29;20263;-92
2023/11/03 06:47:59;;;;;;;1.02;0.13;;;8.20;99.90;;;;;;4099988;28;20269;-89
2023/11/03 06:49:59;;;;;;;0.00;0.00;;;8.20;99.90;;;;;;4099771;29;20565;-90
2023/11/03 06:52:00;;;;;;;0.75;0.32;;;8.20;99.90;;;;;;4100015;29;20182;-92
2023/11/03 06:54:02;;;;;;;2.00;0.63;;;8.20;99.90;;;;;;4115638;28;20194;-91
2023/11/03 06:56:04;;;;;;;2.35;0.50;;;8.20;99.90;;;;;;4099827;29;20178;-90
2023/11/03 06:58:05;;;;;;;2.10;0.20;;;8.20;99.90;;;;;;4099888;29;20741;-92
2023/11/03 07:00:09;;;;;;;1.95;0.38;;;8.20;99.90;;;;;;4099835;29;20207;-90
2023/11/03 07:02:13;;;;;;;2.97;0.50;;;8.20;99.90;;;;;;4099840;29;20222;-90
2023/11/03 07:04:14;;;;;;;0.73;0.33;;;8.20;99.90;;;;;;4115725;28;20241;-91
2023/11/03 07:06:15;;;;;;;0.43;0.22;;;8.30;99.90;;;;;;4115781;28;20643;-91
2023/11/03 07:08:16;;;;;;;0.93;0.30;;;8.30;99.90;;;;;;4100062;29;20263;-91
2023/11/03 07:10:17;;;;;;;0.63;0.20;;;8.30;99.90;;;;;;4099795;28;20214;-90
2023/11/03 07:12:18;;;;;;;10.13;0.77;;;8.30;99.90;;;;;;4099783;28;20180;-90
2023/11/03 07:14:19;;;;;;;2.35;0.77;;;8.20;99.90;;;;;;4099729;28;20183;-90
2023/11/03 07:16:20;;;;;;;0.20;0.13;;;8.20;99.90;;;;;;4115531;28;20253;-92
2023/11/03 07:18:21;;;;;;;2.25;0.35;;;8.30;99.90;;;;;;4115599;28;20187;-91
2023/11/03 07:20:22;;;;;;;0.30;0.20;;;8.40;99.90;;;;;;4099539;29;20682;-91
2023/11/03 07:22:24;;;;;;;7.18;0.63;;;8.30;99.90;;;;;;4099437;29;20206;-92
2023/11/03 07:24:25;;;;;;;1.27;0.38;;;8.40;99.90;;;;;;4099462;29;20551;-92
2023/11/03 07:26:28;;;;;;;2.30;0.28;;;8.50;99.90;;;;;;4099485;29;20212;-90
2023/11/03 07:28:31;;;;;;;1.23;0.38;;;8.60;99.90;;;;;;4099550;29;20204;-92
2023/11/03 07:30:32;;;;;;;0.38;0.13;;;8.60;99.90;;;;;;4115638;28;20197;-91
2023/11/03 07:32:33;;;;;;;3.20;0.30;;;8.60;99.90;;;;;;4115862;28;20670;-92
2023/11/03 07:34:34;;;;;;;3.40;0.50;;;8.70;99.90;;;;;;4099735;28;20675;-90
2023/11/03 07:36:35;;;;;;;0.47;0.17;;;8.60;99.90;;;;;;4116407;28;20175;-91
2023/11/03 07:38:36;;;;;;;5.15;0.47;;;8.70;99.90;;;;;;4102631;29;20764;-92
2023/11/03 07:40:37;;;;;;;0.83;0.20;;;8.70;99.90;;;;;;4118441;28;20189;-93
2023/11/03 07:42:38;;;;;;;3.10;0.82;;;8.70;99.90;;;;;;4102725;29;20182;-89
2023/11/03 07:44:39;;;;;;;6.18;0.55;;;8.70;99.90;;;;;;4118683;28;20665;-91
2023/11/03 07:46:40;;;;;;;4.47;0.30;;;8.60;99.90;;;;;;4102673;29;20253;-90
2023/11/03 07:48:41;;;;;;;2.00;0.75;;;8.50;99.90;;;;;;4102411;29;20247;-90
2023/11/03 07:50:42;;;;;;;1.45;0.77;;;8.50;99.90;;;;;;4102509;29;20183;-90
2023/11/03 07:52:43;;;;;;;2.47;0.22;;;8.60;99.90;;;;;;4102383;28;20186;-92
2023/11/03 07:54:43;;;;;;;5.15;1.02;;;8.70;99.90;;;;;;4118291;28;20178;-92
2023/11/03 07:56:44;;;;;;;2.53;0.90;;;9.00;99.90;;;;;;4102090;29;20266;-90
2023/11/03 07:58:45;;;;;;;3.55;0.85;;;9.10;99.90;;;;;;4101856;28;20258;-90
2023/11/03 08:00:46;;;;;;;1.60;0.30;;;9.20;99.90;;;;;;4102246;28;20270;-91
2023/11/03 08:02:47;;;;;;;3.25;0.63;;;9.10;99.90;;;;;;4117998;28;20197;-91
2023/11/03 08:04:48;;;;;;;7.95;0.20;;;9.20;99.90;;;;;;4102276;29;20551;-92
2023/11/03 08:06:49;;;;;;;4.03;0.57;;;9.20;99.90;;;;;;4102092;29;20238;-91
2023/11/03 08:08:50;;;;;;;1.38;0.20;;;9.20;99.90;;;;;;4101829;29;20289;-92
2023/11/03 08:10:53;;;;;;;1.40;0.65;;;9.50;99.90;;;;;;4118087;28;20236;-91
2023/11/03 08:12:55;;;;;;;6.53;0.80;;;9.70;99.90;;;;;;4101968;28;20178;-93
2023/11/03 08:14:56;;;;;;;12.80;0.90;;;9.60;99.90;;;;;;4102050;29;20191;-91
2023/11/03 08:16:56;;;;;;;2.80;0.57;;;9.50;99.90;;;;;;4102141;29;20186;-91
2023/11/03 08:18:58;;;;;;;4.00;0.52;;;9.40;99.90;;;;;;4101918;29;20227;-92
2023/11/03 08:20:59;;;;;;;3.47;0.28;;;9.50;99.90;;;;;;4101813;29;20199;-91
2023/11/03 08:22:59;;;;;;;2.45;0.52;;;9.40;99.90;;;;;;4101793;28;20299;-90
2023/11/03 08:25:03;;;;;;;1.10;0.43;;;9.40;99.90;;;;;;4101772;29;20210;-91
2023/11/03 08:27:04;;;;;;;7.80;0.70;;;9.40;99.90;;;;;;4101778;28;20190;-90
2023/11/03 08:29:08;;;;;;;0.82;0.30;;;9.40;99.90;;;;;;4101606;29;20194;-91
2023/11/03 08:31:10;;;;;;;1.88;0.13;;;9.40;99.90;;;;;;4102054;28;20187;-90
2023/11/03 08:33:10;;;;;;;4.38;0.20;;;9.40;99.90;;;;;;4101809;28;20266;-91
2023/11/03 08:35:11;;;;;;;2.13;0.30;;;9.50;99.90;;;;;;4117740;28;20249;-90
2023/11/03 08:37:12;;;;;;;2.80;0.70;;;9.50;99.90;;;;;;4101600;29;20191;-92
2023/11/03 08:39:13;;;;;;;0.52;0.30;;;9.60;99.90;;;;;;4101716;28;20254;-93
2023/11/03 08:41:13;;;;;;;1.60;0.20;;;9.50;99.90;;;;;;4101521;29;20210;-92
2023/11/03 08:43:14;;;;;;;1.90;0.63;;;9.40;99.90;;;;;;4101500;29;20186;-91
2023/11/03 08:45:17;;;;;;;5.72;0.82;;;9.30;99.90;;;;;;4117562;28;20210;-90
2023/11/03 08:47:19;;;;;;;0.80;0.50;;;9.30;99.90;;;;;;4101424;29;20191;-91
2023/11/03 08:49:19;;;;;;;0.80;0.35;;;9.30;99.90;;;;;;4100492;28;20213;-92
2023/11/03 08:51:22;;;;;;;3.72;0.77;;;9.40;99.90;;;;;;4101644;29;20191;-91
2023/11/03 08:53:25;;;;;;;0.40;0.30;;;9.50;99.90;;;;;;4117585;28;20170;-92
2023/11/03 08:55:26;;;;;;;6.03;0.77;;;9.60;99.90;;;;;;4101494;29;20190;-92
2023/11/03 08:57:28;;;;;;;4.20;0.80;;;9.60;99.90;;;;;;4101498;29;20179;-91
2023/11/03 08:59:29;;;;;;;2.65;0.60;;;9.70;99.90;;;;;;4101043;29;20226;-92
2023/11/03 09:01:30;;;;;;;4.43;0.22;;;9.60;99.90;;;;;;4101422;29;20171;-91
2023/11/03 09:03:31;;;;;;;6.05;0.38;;;9.50;99.90;;;;;;4101516;29;20915;-91
2023/11/03 09:05:32;;;;;;;1.92;0.57;;;9.50;99.90;;;;;;4101478;29;20715;-90
2023/11/03 09:07:35;;;;;;;1.30;0.20;;;9.50;99.90;;;;;;4101361;29;20269;-92
2023/11/03 09:09:36;;;;;;;5.65;0.43;;;9.30;99.90;;;;;;4101283;29;20203;-93
2023/11/03 09:11:37;;;;;;;0.20;0.20;;;9.40;99.90;;;;;;4101219;29;20775;-93
2023/11/03 09:13:51;;;;;;;6.75;1.10;;;9.50;99.90;;;;;;4101282;29;20190;-91
2023/11/03 09:15:52;;;;;;;3.20;0.57;;;9.60;99.90;;;;;;4101256;29;20281;-90
2023/11/03 09:17:53;;;;;;;5.53;0.65;;;9.60;99.90;;;;;;4100705;29;20190;-90
2023/11/03 09:19:56;;;;;;;6.35;0.55;;;9.60;99.90;;;;;;4100809;29;20313;-91
2023/11/03 09:21:57;;;;;;;7.28;0.88;;;9.60;99.90;;;;;;4100922;29;20175;-91
2023/11/03 09:23:59;;;;;;;2.08;0.93;;;9.70;99.90;;;;;;4101038;28;20198;-90
2023/11/03 09:26:00;;;;;;;5.57;0.43;;;9.80;99.90;;;;;;4101430;29;20190;-90
2023/11/03 09:28:00;;;;;;;6.28;1.25;;;9.90;99.90;;;;;;4100967;28;20198;-92
2023/11/03 09:30:04;;;;;;;3.97;0.85;;;10.10;99.90;;;;;;4100610;29;20289;-91
2023/11/03 09:32:06;;;;;;;1.27;0.30;;;10.20;99.90;;;;;;4100712;28;20182;-92
2023/11/03 09:34:08;;;;;;;4.63;0.70;;;10.20;99.90;;;;;;4100745;28;20654;-91
2023/11/03 09:36:09;;;;;;;3.50;0.57;;;10.30;99.90;;;;;;4100431;29;20183;-92
2023/11/03 09:38:10;;;;;;;4.28;0.70;;;10.50;99.90;;;;;;4100729;29;20274;-90
2023/11/03 09:40:16;;;;;;;1.02;0.28;;;10.60;99.90;;;;;;4100573;28;20222;-90
2023/11/03 09:42:20;;;;;;;5.45;0.80;;;10.60;99.90;;;;;;4100702;29;20263;-92
2023/11/03 09:44:21;;;;;;;2.78;0.45;;;10.70;99.90;;;;;;4116517;28;20190;-91
2023/11/03 09:46:22;;;;;;;1.63;0.57;;;10.60;99.90;;;;;;4116622;28;20170;-91
2023/11/03 09:48:25;;;;;;;7.43;0.93;;;10.60;99.90;;;;;;4100391;29;20198;-90
2023/11/03 09:50:27;;;;;;;2.42;0.45;;;10.50;99.90;;;;;;4100497;29;20195;-91
2023/11/03 09:52:32;;;;;;;8.27;1.42;;;10.50;99.90;;;;;;4100630;29;20246;-90
2023/11/03 09:54:35;;;;;;;0.38;0.20;;;10.50;99.90;;;;;;4100383;29;20182;-90
2023/11/03 09:56:36;;;;;;;3.42;0.55;;;10.60;99.90;;;;;;4116351;28;20186;-92
2023/11/03 09:58:37;;;;;;;2.17;0.57;;;10.80;99.90;;;;;;4100139;29;20211;-90
2023/11/03 10:00:38;;;;;;;1.80;0.32;;;10.80;99.90;;;;;;4100216;28;20216;-91
2023/11/03 10:02:39;;;;;;;5.05;0.98;;;10.90;99.90;;;;;;4100446;29;20751;-90
2023/11/03 10:04:40;;;;;;;2.53;0.50;;;11.10;99.90;;;;;;4100459;29;20237;-91
2023/11/03 10:06:41;;;;;;;1.23;0.50;;;11.40;99.90;;;;;;4100443;28;20670;-90
2023/11/03 10:08:44;;;;;;;7.65;1.10;;;11.60;99.90;;;;;;4100194;29;20239;-91
2023/11/03 10:10:47;;;;;;;3.60;0.85;;;11.50;99.90;;;;;;4100361;29;20171;-91
2023/11/03 10:12:47;;;;;;;0.73;0.38;;;11.70;99.90;;;;;;4100416;29;20182;-91
2023/11/03 10:14:48;;;;;;;1.60;0.35;;;11.70;99.90;;;;;;4100272;29;20190;-91
2023/11/03 10:16:51;;;;;;;4.30;0.70;;;11.60;99.90;;;;;;4100164;29;20241;-91
2023/11/03 10:18:52;;;;;;;6.78;0.88;;;11.40;99.90;;;;;;4099994;29;20231;-91
2023/11/03 10:20:56;;;;;;;2.58;0.57;;;11.40;99.90;;;;;;4100298;29;20675;-92
2023/11/03 10:22:57;;;;;;;1.98;0.65;;;11.30;99.90;;;;;;4100144;29;20191;-90
2023/11/03 10:25:00;;;;;;;1.15;0.60;;;11.20;99.90;;;;;;4116124;28;20240;-91
2023/11/03 10:27:01;;;;;;;8.18;1.00;;;11.20;99.90;;;;;;4100342;29;20702;-91
2023/11/03 10:29:03;;;;;;;3.28;0.75;;;11.30;99.90;;;;;;4100124;29;20210;-91
2023/11/03 10:31:05;;;;;;;3.97;0.88;;;11.30;99.90;;;;;;4100073;29;20186;-91
2023/11/03 10:33:06;;;;;;;3.50;0.13;;;11.30;99.90;;;;;;4100177;29;20181;-91
2023/11/03 10:35:07;;;;;;;5.35;0.57;;;11.30;99.90;;;;;;4100219;28;20178;-91
2023/11/03 10:37:09;;;;;;;4.90;0.55;;;11.40;99.90;;;;;;4100194;29;20179;-91